sensor_id;sensor_type;location;lat;lon;timestamp;temperature;humidity
78325;DHT22;67584;51.400;6.692;2024-03-23T00:54:42;6.50;92.20
78325;DHT22;67584;51.400;6.692;2024-03-23T00:57:07;6.20;92.20
78325;DHT22;67584;51.400;6.692;2024-03-23T00:59:33;6.20;92.20
78325;DHT22;67584;51.400;6.692;2024-03-23T01:01:59;6.20;92.20
78325;DHT22;67584;51.400;6.692;2024-03-23T01:04:25;6.30;92.20
78325;DHT22;67584;51.400;6.692;2024-03-23T01:06:50;6.00;92.10
78325;DHT22;67584;51.400;6.692;2024-03-23T01:09:16;5.90;91.90
78325;DHT22;67584;51.400;6.692;2024-03-23T01:11:41;5.80;91.90
78325;DHT22;67584;51.400;6.692;2024-03-23T01:14:07;6.00;91.90
78325;DHT22;67584;51.400;6.692;2024-03-23T01:16:33;5.80;91.50
78325;DHT22;67584;51.400;6.692;2024-03-23T01:18:58;5.70;91.80
78325;DHT22;67584;51.400;6.692;2024-03-23T01:21:24;5.70;91.80
78325;DHT22;67584;51.400;6.692;2024-03-23T01:23:50;5.60;91.90
78325;DHT22;67584;51.400;6.692;2024-03-23T01:26:16;5.70;91.90
78325;DHT22;67584;51.400;6.692;2024-03-23T01:28:42;5.50;91.90
78325;DHT22;67584;51.400;6.692;2024-03-23T01:31:07;5.60;91.90
78325;DHT22;67584;51.400;6.692;2024-03-23T01:33:33;5.60;92.00
78325;DHT22;67584;51.400;6.692;2024-03-23T01:35:58;5.60;92.10
78325;DHT22;67584;51.400;6.692;2024-03-23T01:38:24;5.70;92.10
78325;DHT22;67584;51.400;6.692;2024-03-23T01:40:54;5.70;92.10
78325;DHT22;67584;51.400;6.692;2024-03-23T01:43:21;5.70;92.00
78325;DHT22;67584;51.400;6.692;2024-03-23T01:45:47;5.70;92.00
78325;DHT22;67584;51.400;6.692;2024-03-23T01:48:13;5.60;92.00
78325;DHT22;67584;51.400;6.692;2024-03-23T01:50:39;5.50;92.00
78325;DHT22;67584;51.400;6.692;2024-03-23T01:53:05;5.70;92.00
78325;DHT22;67584;51.400;6.692;2024-03-23T01:55:32;5.70;92.00
78325;DHT22;67584;51.400;6.692;2024-03-23T01:57:58;5.60;92.00
78325;DHT22;67584;51.400;6.692;2024-03-23T02:00:24;5.50;92.00
78325;DHT22;67584;51.400;6.692;2024-03-23T02:02:50;5.60;92.10
78325;DHT22;67584;51.400;6.692;2024-03-23T02:05:16;5.60;92.10
78325;DHT22;67584;51.400;6.692;2024-03-23T02:07:43;5.60;92.10
78325;DHT22;67584;51.400;6.692;2024-03-23T02:10:09;5.30;92.10
78325;DHT22;67584;51.400;6.692;2024-03-23T02:12:36;5.30;92.20
78325;DHT22;67584;51.400;6.692;2024-03-23T02:15:02;5.50;92.20
78325;DHT22;67584;51.400;6.692;2024-03-23T02:17:30;5.50;92.20
78325;DHT22;67584;51.400;6.692;2024-03-23T02:19:56;5.30;92.10
78325;DHT22;67584;51.400;6.692;2024-03-23T02:22:22;5.50;91.90
78325;DHT22;67584;51.400;6.692;2024-03-23T02:24:48;5.60;91.90
78325;DHT22;67584;51.400;6.692;2024-03-23T02:27:13;5.50;91.90
78325;DHT22;67584;51.400;6.692;2024-03-23T02:29:39;5.60;92.00
78325;DHT22;67584;51.400;6.692;2024-03-23T02:32:05;5.40;92.00
78325;DHT22;67584;51.400;6.692;2024-03-23T02:34:31;5.60;92.20
78325;DHT22;67584;51.400;6.692;2024-03-23T02:36:57;5.50;92.10
78325;DHT22;67584;51.400;6.692;2024-03-23T02:39:22;5.50;92.20
78325;DHT22;67584;51.400;6.692;2024-03-23T02:41:48;5.60;92.20
78325;DHT22;67584;51.400;6.692;2024-03-23T02:44:14;5.60;92.20
78325;DHT22;67584;51.400;6.692;2024-03-23T02:46:40;5.70;92.20
78325;DHT22;67584;51.400;6.692;2024-03-23T02:49:06;5.60;92.20
78325;DHT22;67584;51.400;6.692;2024-03-23T02:51:31;5.50;92.20
78325;DHT22;67584;51.400;6.692;2024-03-23T02:53:57;5.40;92.20
78325;DHT22;67584;51.400;6.692;2024-03-23T02:56:23;5.60;92.20
78325;DHT22;67584;51.400;6.692;2024-03-23T02:58:49;5.40;92.20
78325;DHT22;67584;51.400;6.692;2024-03-23T03:01:14;5.50;92.10
78325;DHT22;67584;51.400;6.692;2024-03-23T03:03:40;5.50;92.20
78325;DHT22;67584;51.400;6.692;2024-03-23T03:06:06;5.50;92.20
78325;DHT22;67584;51.400;6.692;2024-03-23T03:08:31;5.50;92.10
78325;DHT22;67584;51.400;6.692;2024-03-23T03:10:57;5.50;92.20
78325;DHT22;67584;51.400;6.692;2024-03-23T03:13:23;5.40;92.20
78325;DHT22;67584;51.400;6.692;2024-03-23T03:15:48;5.30;92.20
78325;DHT22;67584;51.400;6.692;2024-03-23T03:18:14;5.50;92.20
78325;DHT22;67584;51.400;6.692;2024-03-23T03:20:40;5.30;92.10
78325;DHT22;67584;51.400;6.692;2024-03-23T03:23:06;5.50;92.20
78325;DHT22;67584;51.400;6.692;2024-03-23T03:25:32;5.30;92.20
78325;DHT22;67584;51.400;6.692;2024-03-23T03:27:58;5.50;92.20
78325;DHT22;67584;51.400;6.692;2024-03-23T03:30:24;5.40;92.20
78325;DHT22;67584;51.400;6.692;2024-03-23T03:32:54;5.30;92.20
78325;DHT22;67584;51.400;6.692;2024-03-23T03:35:20;5.20;92.10
78325;DHT22;67584;51.400;6.692;2024-03-23T03:37:46;5.40;92.10
78325;DHT22;67584;51.400;6.692;2024-03-23T03:40:12;5.40;92.10
78325;DHT22;67584;51.400;6.692;2024-03-23T03:42:40;5.40;92.20
78325;DHT22;67584;51.400;6.692;2024-03-23T03:45:06;5.40;92.20
78325;DHT22;67584;51.400;6.692;2024-03-23T03:47:32;5.40;92.20
78325;DHT22;67584;51.400;6.692;2024-03-23T03:49:58;5.30;92.20
78325;DHT22;67584;51.400;6.692;2024-03-23T03:52:24;5.50;92.10
78325;DHT22;67584;51.400;6.692;2024-03-23T03:54:49;5.30;92.20
78325;DHT22;67584;51.400;6.692;2024-03-23T03:57:15;5.50;92.20
78325;DHT22;67584;51.400;6.692;2024-03-23T03:59:41;5.50;92.10
78325;DHT22;67584;51.400;6.692;2024-03-23T04:02:06;5.40;92.10
78325;DHT22;67584;51.400;6.692;2024-03-23T04:04:32;5.30;92.10
78325;DHT22;67584;51.400;6.692;2024-03-23T04:07:01;5.30;92.00
78325;DHT22;67584;51.400;6.692;2024-03-23T04:09:28;5.40;92.10
78325;DHT22;67584;51.400;6.692;2024-03-23T04:11:53;5.10;92.00
78325;DHT22;67584;51.400;6.692;2024-03-23T04:14:19;5.30;92.00
78325;DHT22;67584;51.400;6.692;2024-03-23T04:16:45;5.40;92.00
78325;DHT22;67584;51.400;6.692;2024-03-23T04:19:11;5.50;92.10
78325;DHT22;67584;51.400;6.692;2024-03-23T04:21:37;5.60;92.00
78325;DHT22;67584;51.400;6.692;2024-03-23T04:24:04;5.50;92.00
78325;DHT22;67584;51.400;6.692;2024-03-23T04:26:30;5.40;92.00
78325;DHT22;67584;51.400;6.692;2024-03-23T04:29:05;5.50;92.00
78325;DHT22;67584;51.400;6.692;2024-03-23T04:31:31;5.40;91.90
78325;DHT22;67584;51.400;6.692;2024-03-23T04:33:57;5.50;92.00
78325;DHT22;67584;51.400;6.692;2024-03-23T04:36:23;5.30;92.00
78325;DHT22;67584;51.400;6.692;2024-03-23T04:38:48;5.60;92.10
78325;DHT22;67584;51.400;6.692;2024-03-23T04:41:15;5.60;92.10
78325;DHT22;67584;51.400;6.692;2024-03-23T04:43:41;5.50;92.00
78325;DHT22;67584;51.400;6.692;2024-03-23T04:46:07;5.50;92.00
78325;DHT22;67584;51.400;6.692;2024-03-23T04:48:32;5.50;91.90
78325;DHT22;67584;51.400;6.692;2024-03-23T04:50:58;5.40;92.00
78325;DHT22;67584;51.400;6.692;2024-03-23T04:53:24;5.20;91.90
78325;DHT22;67584;51.400;6.692;2024-03-23T04:55:55;5.60;92.10
78325;DHT22;67584;51.400;6.692;2024-03-23T04:58:22;5.60;92.10
78325;DHT22;67584;51.400;6.692;2024-03-23T05:00:54;5.40;92.20
78325;DHT22;67584;51.400;6.692;2024-03-23T05:03:19;5.50;92.20
78325;DHT22;67584;51.400;6.692;2024-03-23T05:05:47;5.50;92.20
78325;DHT22;67584;51.400;6.692;2024-03-23T05:08:13;5.50;92.20
78325;DHT22;67584;51.400;6.692;2024-03-23T05:10:40;5.40;92.20
78325;DHT22;67584;51.400;6.692;2024-03-23T05:13:06;5.20;92.20
78325;DHT22;67584;51.400;6.692;2024-03-23T05:15:32;5.40;92.20
78325;DHT22;67584;51.400;6.692;2024-03-23T05:17:58;5.50;92.20
78325;DHT22;67584;51.400;6.692;2024-03-23T05:20:23;5.40;92.20
78325;DHT22;67584;51.400;6.692;2024-03-23T05:22:49;5.40;92.20
78325;DHT22;67584;51.400;6.692;2024-03-23T05:25:16;5.60;92.20
78325;DHT22;67584;51.400;6.692;2024-03-23T05:27:41;5.40;92.20
78325;DHT22;67584;51.400;6.692;2024-03-23T05:30:08;5.40;92.20
78325;DHT22;67584;51.400;6.692;2024-03-23T05:32:34;5.50;92.20
78325;DHT22;67584;51.400;6.692;2024-03-23T05:35:00;5.20;92.20
78325;DHT22;67584;51.400;6.692;2024-03-23T05:37:25;5.30;92.20
78325;DHT22;67584;51.400;6.692;2024-03-23T05:39:51;5.20;92.20
78325;DHT22;67584;51.400;6.692;2024-03-23T05:42:17;5.40;92.20
78325;DHT22;67584;51.400;6.692;2024-03-23T05:44:47;5.40;92.20
78325;DHT22;67584;51.400;6.692;2024-03-23T05:47:13;5.40;92.20
78325;DHT22;67584;51.400;6.692;2024-03-23T05:49:40;5.30;92.20
78325;DHT22;67584;51.400;6.692;2024-03-23T05:52:09;5.40;92.20
78325;DHT22;67584;51.400;6.692;2024-03-23T05:54:35;5.30;92.20
78325;DHT22;67584;51.400;6.692;2024-03-23T05:57:01;5.30;92.20
78325;DHT22;67584;51.400;6.692;2024-03-23T05:59:27;5.10;92.20
78325;DHT22;67584;51.400;6.692;2024-03-23T06:01:53;5.20;92.20
78325;DHT22;67584;51.400;6.692;2024-03-23T06:04:19;5.20;92.20
78325;DHT22;67584;51.400;6.692;2024-03-23T06:06:45;5.10;92.20
78325;DHT22;67584;51.400;6.692;2024-03-23T06:09:11;5.00;92.20
78325;DHT22;67584;51.400;6.692;2024-03-23T06:11:37;5.10;92.20
78325;DHT22;67584;51.400;6.692;2024-03-23T06:14:02;5.10;92.20
78325;DHT22;67584;51.400;6.692;2024-03-23T06:16:28;5.00;92.20
78325;DHT22;67584;51.400;6.692;2024-03-23T06:18:54;5.10;92.20
78325;DHT22;67584;51.400;6.692;2024-03-23T06:21:20;5.30;92.20
78325;DHT22;67584;51.400;6.692;2024-03-23T06:23:46;5.30;92.20
78325;DHT22;67584;51.400;6.692;2024-03-23T06:26:20;5.10;92.20
78325;DHT22;67584;51.400;6.692;2024-03-23T06:28:47;5.20;92.20
78325;DHT22;67584;51.400;6.692;2024-03-23T06:31:13;5.20;92.20
78325;DHT22;67584;51.400;6.692;2024-03-23T06:33:38;5.40;92.20
78325;DHT22;67584;51.400;6.692;2024-03-23T06:36:05;5.30;92.20
78325;DHT22;67584;51.400;6.692;2024-03-23T06:38:31;5.30;92.20
78325;DHT22;67584;51.400;6.692;2024-03-23T06:40:57;5.30;92.20
78325;DHT22;67584;51.400;6.692;2024-03-23T06:43:23;5.50;92.20
78325;DHT22;67584;51.400;6.692;2024-03-23T06:45:53;5.40;92.20
78325;DHT22;67584;51.400;6.692;2024-03-23T06:48:19;5.50;92.20
78325;DHT22;67584;51.400;6.692;2024-03-23T06:50:45;5.50;92.20
78325;DHT22;67584;51.400;6.692;2024-03-23T06:53:12;5.70;92.20
78325;DHT22;67584;51.400;6.692;2024-03-23T06:55:40;5.60;92.20
78325;DHT22;67584;51.400;6.692;2024-03-23T06:58:06;5.70;92.10
78325;DHT22;67584;51.400;6.692;2024-03-23T07:00:32;5.60;92.00
78325;DHT22;67584;51.400;6.692;2024-03-23T07:02:59;5.70;92.00
78325;DHT22;67584;51.400;6.692;2024-03-23T07:05:24;6.00;91.90
78325;DHT22;67584;51.400;6.692;2024-03-23T07:07:50;6.00;91.80
78325;DHT22;67584;51.400;6.692;2024-03-23T07:10:16;6.10;91.80
78325;DHT22;67584;51.400;6.692;2024-03-23T07:12:41;6.10;91.70
78325;DHT22;67584;51.400;6.692;2024-03-23T07:15:07;6.10;91.20
78325;DHT22;67584;51.400;6.692;2024-03-23T07:17:36;6.30;90.80
78325;DHT22;67584;51.400;6.692;2024-03-23T07:20:02;6.20;90.30
78325;DHT22;67584;51.400;6.692;2024-03-23T07:22:31;6.40;90.30
78325;DHT22;67584;51.400;6.692;2024-03-23T07:25:00;6.40;89.60
78325;DHT22;67584;51.400;6.692;2024-03-23T07:27:25;6.50;89.60
78325;DHT22;67584;51.400;6.692;2024-03-23T07:29:51;6.40;89.50
78325;DHT22;67584;51.400;6.692;2024-03-23T07:32:17;6.50;88.50
78325;DHT22;67584;51.400;6.692;2024-03-23T07:34:42;6.60;87.80
78325;DHT22;67584;51.400;6.692;2024-03-23T07:37:10;6.80;88.20
78325;DHT22;67584;51.400;6.692;2024-03-23T07:39:36;6.80;88.40
78325;DHT22;67584;51.400;6.692;2024-03-23T07:42:02;6.90;87.60
78325;DHT22;67584;51.400;6.692;2024-03-23T07:44:28;7.00;87.80
78325;DHT22;67584;51.400;6.692;2024-03-23T07:46:53;7.10;86.60
78325;DHT22;67584;51.400;6.692;2024-03-23T07:49:19;7.10;86.20
78325;DHT22;67584;51.400;6.692;2024-03-23T07:51:45;7.10;86.00
78325;DHT22;67584;51.400;6.692;2024-03-23T07:54:10;7.10;86.40
78325;DHT22;67584;51.400;6.692;2024-03-23T07:56:36;7.30;85.50
78325;DHT22;67584;51.400;6.692;2024-03-23T07:59:02;7.20;85.30
78325;DHT22;67584;51.400;6.692;2024-03-23T08:01:29;7.30;86.30
78325;DHT22;67584;51.400;6.692;2024-03-23T08:03:55;7.50;84.60
78325;DHT22;67584;51.400;6.692;2024-03-23T08:06:21;7.80;85.10
78325;DHT22;67584;51.400;6.692;2024-03-23T08:08:52;7.70;83.40
78325;DHT22;67584;51.400;6.692;2024-03-23T08:11:29;7.80;84.30
78325;DHT22;67584;51.400;6.692;2024-03-23T08:13:55;8.10;83.20
78325;DHT22;67584;51.400;6.692;2024-03-23T08:16:21;8.30;81.90
78325;DHT22;67584;51.400;6.692;2024-03-23T08:18:47;8.80;82.40
78325;DHT22;67584;51.400;6.692;2024-03-23T08:21:12;9.10;79.20
78325;DHT22;67584;51.400;6.692;2024-03-23T08:23:39;9.20;78.20
78325;DHT22;67584;51.400;6.692;2024-03-23T08:26:09;8.40;81.20
78325;DHT22;67584;51.400;6.692;2024-03-23T08:28:36;6.50;82.80
78325;DHT22;67584;51.400;6.692;2024-03-23T08:31:12;5.80;86.80
78325;DHT22;67584;51.400;6.692;2024-03-23T08:33:40;5.90;88.80
78325;DHT22;67584;51.400;6.692;2024-03-23T08:36:09;5.80;88.10
78325;DHT22;67584;51.400;6.692;2024-03-23T08:38:37;6.00;88.50
78325;DHT22;67584;51.400;6.692;2024-03-23T08:41:05;5.70;85.30
78325;DHT22;67584;51.400;6.692;2024-03-23T08:43:35;5.90;85.90
78325;DHT22;67584;51.400;6.692;2024-03-23T08:46:09;5.50;86.00
78325;DHT22;67584;51.400;6.692;2024-03-23T08:48:36;5.60;86.80
78325;DHT22;67584;51.400;6.692;2024-03-23T08:53:29;5.70;86.00
78325;DHT22;67584;51.400;6.692;2024-03-23T08:55:59;5.50;86.70
78325;DHT22;67584;51.400;6.692;2024-03-23T08:58:26;5.80;87.20
78325;DHT22;67584;51.400;6.692;2024-03-23T09:00:53;5.90;86.90
78325;DHT22;67584;51.400;6.692;2024-03-23T09:03:22;6.20;87.30
78325;DHT22;67584;51.400;6.692;2024-03-23T09:05:48;6.60;86.20
78325;DHT22;67584;51.400;6.692;2024-03-23T09:08:14;7.10;84.60
78325;DHT22;67584;51.400;6.692;2024-03-23T09:10:40;7.30;84.20
78325;DHT22;67584;51.400;6.692;2024-03-23T09:13:07;7.20;84.30
78325;DHT22;67584;51.400;6.692;2024-03-23T09:15:34;7.60;84.70
78325;DHT22;67584;51.400;6.692;2024-03-23T09:18:00;7.60;82.90
78325;DHT22;67584;51.400;6.692;2024-03-23T09:20:26;7.70;82.80
78325;DHT22;67584;51.400;6.692;2024-03-23T09:22:51;7.80;83.10
78325;DHT22;67584;51.400;6.692;2024-03-23T09:25:17;8.20;82.00
78325;DHT22;67584;51.400;6.692;2024-03-23T09:27:46;8.60;80.50
78325;DHT22;67584;51.400;6.692;2024-03-23T09:30:12;9.00;78.00
78325;DHT22;67584;51.400;6.692;2024-03-23T09:32:39;9.10;79.90
78325;DHT22;67584;51.400;6.692;2024-03-23T09:35:05;9.40;77.90
78325;DHT22;67584;51.400;6.692;2024-03-23T09:37:30;9.80;77.40
78325;DHT22;67584;51.400;6.692;2024-03-23T09:39:56;9.80;74.90
78325;DHT22;67584;51.400;6.692;2024-03-23T09:42:22;9.70;75.70
78325;DHT22;67584;51.400;6.692;2024-03-23T09:44:49;10.60;72.90
78325;DHT22;67584;51.400;6.692;2024-03-23T09:47:16;11.80;68.30
78325;DHT22;67584;51.400;6.692;2024-03-23T09:49:41;12.50;67.40
78325;DHT22;67584;51.400;6.692;2024-03-23T09:52:07;11.80;61.50
78325;DHT22;67584;51.400;6.692;2024-03-23T09:54:33;10.70;65.60
78325;DHT22;67584;51.400;6.692;2024-03-23T09:56:59;10.90;67.30
78325;DHT22;67584;51.400;6.692;2024-03-23T09:59:24;11.70;61.50
78325;DHT22;67584;51.400;6.692;2024-03-23T10:01:53;11.90;61.70
78325;DHT22;67584;51.400;6.692;2024-03-23T10:04:38;12.30;61.60
78325;DHT22;67584;51.400;6.692;2024-03-23T10:07:13;13.10;63.40
78325;DHT22;67584;51.400;6.692;2024-03-23T10:09:40;13.80;58.20
78325;DHT22;67584;51.400;6.692;2024-03-23T10:12:14;12.10;60.70
78325;DHT22;67584;51.400;6.692;2024-03-23T10:14:43;12.60;62.70
78325;DHT22;67584;51.400;6.692;2024-03-23T10:17:19;12.50;57.40
78325;DHT22;67584;51.400;6.692;2024-03-23T10:22:14;10.80;64.10
78325;DHT22;67584;51.400;6.692;2024-03-23T10:24:40;10.10;67.10
78325;DHT22;67584;51.400;6.692;2024-03-23T10:27:06;9.40;67.30
78325;DHT22;67584;51.400;6.692;2024-03-23T10:29:32;9.10;71.60
78325;DHT22;67584;51.400;6.692;2024-03-23T10:32:11;6.60;75.60
78325;DHT22;67584;51.400;6.692;2024-03-23T10:34:37;5.00;80.70
78325;DHT22;67584;51.400;6.692;2024-03-23T10:37:04;4.40;84.10
78325;DHT22;67584;51.400;6.692;2024-03-23T10:39:34;4.20;84.70
78325;DHT22;67584;51.400;6.692;2024-03-23T10:42:05;4.10;86.30
78325;DHT22;67584;51.400;6.692;2024-03-23T10:44:31;4.30;86.80
78325;DHT22;67584;51.400;6.692;2024-03-23T10:47:06;4.60;85.70
78325;DHT22;67584;51.400;6.692;2024-03-23T10:49:33;5.00;86.20
78325;DHT22;67584;51.400;6.692;2024-03-23T10:52:00;5.30;85.60
78325;DHT22;67584;51.400;6.692;2024-03-23T10:54:27;5.70;86.30
78325;DHT22;67584;51.400;6.692;2024-03-23T10:57:27;5.90;85.20
78325;DHT22;67584;51.400;6.692;2024-03-23T10:59:51;6.50;81.40
78325;DHT22;67584;51.400;6.692;2024-03-23T11:02:20;7.10;79.40
78325;DHT22;67584;51.400;6.692;2024-03-23T11:04:46;7.10;80.50
78325;DHT22;67584;51.400;6.692;2024-03-23T11:09:53;7.80;81.10
78325;DHT22;67584;51.400;6.692;2024-03-23T11:14:51;10.80;70.50
78325;DHT22;67584;51.400;6.692;2024-03-23T11:17:21;11.70;69.30
78325;DHT22;67584;51.400;6.692;2024-03-23T11:20:01;10.60;70.20
78325;DHT22;67584;51.400;6.692;2024-03-23T11:25:19;12.10;64.60
78325;DHT22;67584;51.400;6.692;2024-03-23T11:27:56;12.20;63.90
78325;DHT22;67584;51.400;6.692;2024-03-23T11:30:27;12.60;62.70
78325;DHT22;67584;51.400;6.692;2024-03-23T11:32:56;12.90;64.70
78325;DHT22;67584;51.400;6.692;2024-03-23T11:35:38;13.50;57.20
78325;DHT22;67584;51.400;6.692;2024-03-23T11:38:13;13.10;59.20
78325;DHT22;67584;51.400;6.692;2024-03-23T11:40:44;13.00;56.30
78325;DHT22;67584;51.400;6.692;2024-03-23T11:43:15;11.40;55.90
78325;DHT22;67584;51.400;6.692;2024-03-23T11:45:46;9.60;66.00
78325;DHT22;67584;51.400;6.692;2024-03-23T11:48:16;8.60;66.10
78325;DHT22;67584;51.400;6.692;2024-03-23T11:50:46;8.30;66.00
78325;DHT22;67584;51.400;6.692;2024-03-23T11:53:19;8.10;67.70
78325;DHT22;67584;51.400;6.692;2024-03-23T11:55:48;7.90;70.60
78325;DHT22;67584;51.400;6.692;2024-03-23T11:58:16;7.80;72.50
78325;DHT22;67584;51.400;6.692;2024-03-23T12:00:41;7.70;73.30
78325;DHT22;67584;51.400;6.692;2024-03-23T12:03:07;7.70;73.60
78325;DHT22;67584;51.400;6.692;2024-03-23T12:05:33;8.00;73.00
78325;DHT22;67584;51.400;6.692;2024-03-23T12:08:21;8.40;71.70
78325;DHT22;67584;51.400;6.692;2024-03-23T12:10:49;8.60;72.50
78325;DHT22;67584;51.400;6.692;2024-03-23T12:13:16;8.90;73.10
78325;DHT22;67584;51.400;6.692;2024-03-23T12:15:43;10.30;69.80
78325;DHT22;67584;51.400;6.692;2024-03-23T12:18:09;12.60;60.60
78325;DHT22;67584;51.400;6.692;2024-03-23T12:20:38;13.20;59.20
78325;DHT22;67584;51.400;6.692;2024-03-23T12:23:12;13.60;58.30
78325;DHT22;67584;51.400;6.692;2024-03-23T12:25:41;14.80;52.80
78325;DHT22;67584;51.400;6.692;2024-03-23T12:28:07;15.40;48.90
78325;DHT22;67584;51.400;6.692;2024-03-23T12:30:39;14.70;48.80
78325;DHT22;67584;51.400;6.692;2024-03-23T12:33:05;13.90;52.90
78325;DHT22;67584;51.400;6.692;2024-03-23T12:35:31;11.80;57.30
78325;DHT22;67584;51.400;6.692;2024-03-23T12:37:57;10.40;62.60
78325;DHT22;67584;51.400;6.692;2024-03-23T12:40:23;8.80;67.20
78325;DHT22;67584;51.400;6.692;2024-03-23T12:42:49;7.90;76.30
78325;DHT22;67584;51.400;6.692;2024-03-23T12:45:15;6.30;84.70
78325;DHT22;67584;51.400;6.692;2024-03-23T12:47:40;5.50;85.20
78325;DHT22;67584;51.400;6.692;2024-03-23T12:50:06;5.40;87.80
78325;DHT22;67584;51.400;6.692;2024-03-23T12:52:33;7.10;89.70
78325;DHT22;67584;51.400;6.692;2024-03-23T12:54:59;8.30;81.00
78325;DHT22;67584;51.400;6.692;2024-03-23T12:57:25;9.80;79.50
78325;DHT22;67584;51.400;6.692;2024-03-23T12:59:52;11.20;73.50
78325;DHT22;67584;51.400;6.692;2024-03-23T13:02:22;12.80;72.00
78325;DHT22;67584;51.400;6.692;2024-03-23T13:04:54;13.80;64.60
78325;DHT22;67584;51.400;6.692;2024-03-23T13:07:21;14.20;58.60
78325;DHT22;67584;51.400;6.692;2024-03-23T13:09:50;12.80;60.10
78325;DHT22;67584;51.400;6.692;2024-03-23T13:12:16;10.80;71.40
78325;DHT22;67584;51.400;6.692;2024-03-23T13:14:44;11.40;62.70
78325;DHT22;67584;51.400;6.692;2024-03-23T13:17:10;10.60;62.50
78325;DHT22;67584;51.400;6.692;2024-03-23T13:19:36;9.10;65.90
78325;DHT22;67584;51.400;6.692;2024-03-23T13:22:02;8.60;69.30
78325;DHT22;67584;51.400;6.692;2024-03-23T13:24:28;8.30;71.50
78325;DHT22;67584;51.400;6.692;2024-03-23T13:26:54;8.10;72.90
78325;DHT22;67584;51.400;6.692;2024-03-23T13:29:21;8.20;70.70
78325;DHT22;67584;51.400;6.692;2024-03-23T13:31:47;8.30;72.40
78325;DHT22;67584;51.400;6.692;2024-03-23T13:34:14;9.50;68.10
78325;DHT22;67584;51.400;6.692;2024-03-23T13:36:44;12.80;59.00
78325;DHT22;67584;51.400;6.692;2024-03-23T13:39:10;14.40;49.80
78325;DHT22;67584;51.400;6.692;2024-03-23T13:41:40;14.50;49.00
78325;DHT22;67584;51.400;6.692;2024-03-23T13:44:06;14.60;48.60
78325;DHT22;67584;51.400;6.692;2024-03-23T13:46:33;14.50;47.30
78325;DHT22;67584;51.400;6.692;2024-03-23T13:48:59;15.60;49.00
78325;DHT22;67584;51.400;6.692;2024-03-23T13:51:25;16.00;44.30
78325;DHT22;67584;51.400;6.692;2024-03-23T13:53:54;16.50;44.10
78325;DHT22;67584;51.400;6.692;2024-03-23T13:56:22;16.90;43.30
78325;DHT22;67584;51.400;6.692;2024-03-23T13:58:48;16.30;42.50
78325;DHT22;67584;51.400;6.692;2024-03-23T14:01:15;15.30;45.60
78325;DHT22;67584;51.400;6.692;2024-03-23T14:03:41;14.30;47.80
78325;DHT22;67584;51.400;6.692;2024-03-23T14:06:08;12.90;53.60
78325;DHT22;67584;51.400;6.692;2024-03-23T14:08:37;13.20;51.60
78325;DHT22;67584;51.400;6.692;2024-03-23T14:11:10;12.80;51.50
78325;DHT22;67584;51.400;6.692;2024-03-23T14:13:36;12.80;53.90
78325;DHT22;67584;51.400;6.692;2024-03-23T14:16:02;14.30;50.70
78325;DHT22;67584;51.400;6.692;2024-03-23T14:18:28;15.90;46.40
78325;DHT22;67584;51.400;6.692;2024-03-23T14:20:57;16.40;44.30
78325;DHT22;67584;51.400;6.692;2024-03-23T14:23:25;14.40;49.40
78325;DHT22;67584;51.400;6.692;2024-03-23T14:25:55;12.90;52.90
78325;DHT22;67584;51.400;6.692;2024-03-23T14:28:22;13.80;50.60
78325;DHT22;67584;51.400;6.692;2024-03-23T14:30:52;13.80;48.30
78325;DHT22;67584;51.400;6.692;2024-03-23T14:33:20;12.50;51.20
78325;DHT22;67584;51.400;6.692;2024-03-23T14:35:56;11.60;53.00
78325;DHT22;67584;51.400;6.692;2024-03-23T14:38:23;10.50;55.20
78325;DHT22;67584;51.400;6.692;2024-03-23T14:40:49;10.00;58.20
78325;DHT22;67584;51.400;6.692;2024-03-23T14:43:15;9.80;59.70
78325;DHT22;67584;51.400;6.692;2024-03-23T14:46:10;9.70;58.90
78325;DHT22;67584;51.400;6.692;2024-03-23T14:48:36;9.70;60.40
78325;DHT22;67584;51.400;6.692;2024-03-23T14:51:03;11.90;56.30
78325;DHT22;67584;51.400;6.692;2024-03-23T14:53:39;14.90;48.90
78325;DHT22;67584;51.400;6.692;2024-03-23T14:56:08;17.50;45.40
78325;DHT22;67584;51.400;6.692;2024-03-23T14:58:37;18.00;41.80
78325;DHT22;67584;51.400;6.692;2024-03-23T15:01:09;18.40;40.70
78325;DHT22;67584;51.400;6.692;2024-03-23T15:03:38;18.40;38.10
78325;DHT22;67584;51.400;6.692;2024-03-23T15:06:05;17.00;41.60
78325;DHT22;67584;51.400;6.692;2024-03-23T15:08:31;17.10;42.00
78325;DHT22;67584;51.400;6.692;2024-03-23T15:11:00;17.30;41.70
78325;DHT22;67584;51.400;6.692;2024-03-23T15:13:37;17.50;40.20
78325;DHT22;67584;51.400;6.692;2024-03-23T15:16:04;17.60;41.70
78325;DHT22;67584;51.400;6.692;2024-03-23T15:18:30;17.00;40.90
78325;DHT22;67584;51.400;6.692;2024-03-23T15:20:58;16.70;42.30
78325;DHT22;67584;51.400;6.692;2024-03-23T15:23:44;18.00;38.30
78325;DHT22;67584;51.400;6.692;2024-03-23T15:26:10;16.90;41.10
78325;DHT22;67584;51.400;6.692;2024-03-23T15:28:36;18.70;38.60
78325;DHT22;67584;51.400;6.692;2024-03-23T15:31:27;17.80;39.00
78325;DHT22;67584;51.400;6.692;2024-03-23T15:33:54;15.80;43.50
78325;DHT22;67584;51.400;6.692;2024-03-23T15:36:20;15.00;45.10
78325;DHT22;67584;51.400;6.692;2024-03-23T15:38:45;15.90;44.70
78325;DHT22;67584;51.400;6.692;2024-03-23T15:41:12;15.00;45.70
78325;DHT22;67584;51.400;6.692;2024-03-23T15:43:37;14.20;47.30
78325;DHT22;67584;51.400;6.692;2024-03-23T15:46:04;14.10;47.70
78325;DHT22;67584;51.400;6.692;2024-03-23T15:48:32;13.00;47.90
78325;DHT22;67584;51.400;6.692;2024-03-23T15:50:59;11.90;51.50
78325;DHT22;67584;51.400;6.692;2024-03-23T15:53:26;11.00;53.10
78325;DHT22;67584;51.400;6.692;2024-03-23T15:56:02;11.30;53.70
78325;DHT22;67584;51.400;6.692;2024-03-23T15:58:29;12.40;52.10
78325;DHT22;67584;51.400;6.692;2024-03-23T16:03:25;12.70;50.40
78325;DHT22;67584;51.400;6.692;2024-03-23T16:05:59;13.20;47.50
78325;DHT22;67584;51.400;6.692;2024-03-23T16:08:26;13.10;48.40
78325;DHT22;67584;51.400;6.692;2024-03-23T16:10:52;14.40;45.50
78325;DHT22;67584;51.400;6.692;2024-03-23T16:13:18;15.30;43.70
78325;DHT22;67584;51.400;6.692;2024-03-23T16:15:45;15.20;43.00
78325;DHT22;67584;51.400;6.692;2024-03-23T16:18:10;15.80;42.10
78325;DHT22;67584;51.400;6.692;2024-03-23T16:20:36;16.20;41.70
78325;DHT22;67584;51.400;6.692;2024-03-23T16:23:03;15.80;41.00
78325;DHT22;67584;51.400;6.692;2024-03-23T16:25:29;15.50;41.30
78325;DHT22;67584;51.400;6.692;2024-03-23T16:27:55;16.10;40.90
78325;DHT22;67584;51.400;6.692;2024-03-23T16:30:21;15.30;40.20
78325;DHT22;67584;51.400;6.692;2024-03-23T16:32:47;14.40;44.00
78325;DHT22;67584;51.400;6.692;2024-03-23T16:35:13;13.10;46.70
78325;DHT22;67584;51.400;6.692;2024-03-23T16:37:40;11.30;49.20
78325;DHT22;67584;51.400;6.692;2024-03-23T16:40:06;10.00;55.50
78325;DHT22;67584;51.400;6.692;2024-03-23T16:42:33;9.10;56.80
78325;DHT22;67584;51.400;6.692;2024-03-23T16:44:59;9.00;59.10
78325;DHT22;67584;51.400;6.692;2024-03-23T16:47:25;8.90;60.60
78325;DHT22;67584;51.400;6.692;2024-03-23T16:49:51;8.60;61.60
78325;DHT22;67584;51.400;6.692;2024-03-23T16:52:16;8.30;62.60